sensor_id;sensor_type;location;lat;lon;timestamp;temperature;humidity
981;DHT22;479;53.514;9.994;2023-03-14T00:00:48;11.40;99.90
981;DHT22;479;53.514;9.994;2023-03-14T00:03:15;11.40;99.90
981;DHT22;479;53.514;9.994;2023-03-14T00:05:43;11.40;99.90
981;DHT22;479;53.514;9.994;2023-03-14T00:08:10;11.40;99.90
981;DHT22;479;53.514;9.994;2023-03-14T00:10:37;11.40;99.90
981;DHT22;479;53.514;9.994;2023-03-14T00:13:04;11.30;99.90
981;DHT22;479;53.514;9.994;2023-03-14T00:15:32;11.30;99.90
981;DHT22;479;53.514;9.994;2023-03-14T00:17:59;11.20;99.90
981;DHT22;479;53.514;9.994;2023-03-14T00:20:26;11.30;99.90
981;DHT22;479;53.514;9.994;2023-03-14T00:22:55;11.30;99.90
981;DHT22;479;53.514;9.994;2023-03-14T00:25:22;11.30;99.90
981;DHT22;479;53.514;9.994;2023-03-14T00:27:50;11.40;99.90
981;DHT22;479;53.514;9.994;2023-03-14T00:30:17;11.40;99.90
981;DHT22;479;53.514;9.994;2023-03-14T00:32:46;11.40;99.90
981;DHT22;479;53.514;9.994;2023-03-14T00:35:12;11.50;99.90
981;DHT22;479;53.514;9.994;2023-03-14T00:37:39;11.50;99.90
981;DHT22;479;53.514;9.994;2023-03-14T00:40:09;11.50;99.90
981;DHT22;479;53.514;9.994;2023-03-14T00:42:36;11.50;99.90
981;DHT22;479;53.514;9.994;2023-03-14T00:45:04;11.60;99.90
981;DHT22;479;53.514;9.994;2023-03-14T00:47:33;11.60;99.90
981;DHT22;479;53.514;9.994;2023-03-14T00:50:00;11.60;99.90
981;DHT22;479;53.514;9.994;2023-03-14T00:52:27;11.50;99.90
981;DHT22;479;53.514;9.994;2023-03-14T00:54:53;11.50;99.90
981;DHT22;479;53.514;9.994;2023-03-14T00:57:22;11.50;99.90
981;DHT22;479;53.514;9.994;2023-03-14T00:59:50;11.50;99.90
981;DHT22;479;53.514;9.994;2023-03-14T01:02:17;11.50;99.90
981;DHT22;479;53.514;9.994;2023-03-14T01:04:44;11.40;99.90
981;DHT22;479;53.514;9.994;2023-03-14T01:07:10;11.50;99.90
981;DHT22;479;53.514;9.994;2023-03-14T01:09:38;11.40;99.90
981;DHT22;479;53.514;9.994;2023-03-14T01:12:05;11.40;99.90
981;DHT22;479;53.514;9.994;2023-03-14T01:14:33;11.40;99.90
981;DHT22;479;53.514;9.994;2023-03-14T01:17:01;11.50;99.90
981;DHT22;479;53.514;9.994;2023-03-14T01:19:28;11.50;99.90
981;DHT22;479;53.514;9.994;2023-03-14T01:21:55;11.50;99.90
981;DHT22;479;53.514;9.994;2023-03-14T01:24:22;11.50;99.90
981;DHT22;479;53.514;9.994;2023-03-14T01:26:49;11.50;99.90
981;DHT22;479;53.514;9.994;2023-03-14T01:29:16;11.60;99.90
981;DHT22;479;53.514;9.994;2023-03-14T01:31:44;11.60;99.90
981;DHT22;479;53.514;9.994;2023-03-14T01:34:11;11.60;99.90
981;DHT22;479;53.514;9.994;2023-03-14T01:36:38;11.60;99.90
981;DHT22;479;53.514;9.994;2023-03-14T01:39:05;11.50;99.90
981;DHT22;479;53.514;9.994;2023-03-14T01:41:34;11.50;99.90
981;DHT22;479;53.514;9.994;2023-03-14T01:44:01;11.40;99.90
981;DHT22;479;53.514;9.994;2023-03-14T01:46:35;11.30;99.90
981;DHT22;479;53.514;9.994;2023-03-14T01:49:13;11.30;99.90
981;DHT22;479;53.514;9.994;2023-03-14T01:51:48;11.20;99.90
981;DHT22;479;53.514;9.994;2023-03-14T01:54:20;11.20;99.90
981;DHT22;479;53.514;9.994;2023-03-14T01:56:51;11.20;99.90
981;DHT22;479;53.514;9.994;2023-03-14T01:59:19;11.20;99.90
981;DHT22;479;53.514;9.994;2023-03-14T02:01:47;11.20;99.90
981;DHT22;479;53.514;9.994;2023-03-14T02:04:18;11.20;99.90
981;DHT22;479;53.514;9.994;2023-03-14T02:06:52;11.20;99.90
981;DHT22;479;53.514;9.994;2023-03-14T02:09:25;11.10;99.90
981;DHT22;479;53.514;9.994;2023-03-14T02:11:52;11.10;99.90
981;DHT22;479;53.514;9.994;2023-03-14T02:14:37;11.00;99.90
981;DHT22;479;53.514;9.994;2023-03-14T02:17:21;11.00;99.90
981;DHT22;479;53.514;9.994;2023-03-14T02:20:28;11.00;99.90
981;DHT22;479;53.514;9.994;2023-03-14T02:22:58;11.00;99.90
981;DHT22;479;53.514;9.994;2023-03-14T02:25:33;11.00;99.90
981;DHT22;479;53.514;9.994;2023-03-14T02:28:03;11.00;99.90
981;DHT22;479;53.514;9.994;2023-03-14T02:30:32;11.00;99.90
981;DHT22;479;53.514;9.994;2023-03-14T02:33:04;11.00;99.90
981;DHT22;479;53.514;9.994;2023-03-14T02:35:34;11.00;99.90
981;DHT22;479;53.514;9.994;2023-03-14T02:38:07;11.00;99.90
981;DHT22;479;53.514;9.994;2023-03-14T02:40:40;11.00;99.90
981;DHT22;479;53.514;9.994;2023-03-14T02:43:08;10.90;99.90
981;DHT22;479;53.514;9.994;2023-03-14T02:45:40;10.90;99.90
981;DHT22;479;53.514;9.994;2023-03-14T02:48:13;10.90;99.90
981;DHT22;479;53.514;9.994;2023-03-14T02:50:41;11.00;99.90
981;DHT22;479;53.514;9.994;2023-03-14T02:53:08;11.10;99.90
981;DHT22;479;53.514;9.994;2023-03-14T02:55:35;11.10;99.90
981;DHT22;479;53.514;9.994;2023-03-14T02:58:12;11.00;99.90
981;DHT22;479;53.514;9.994;2023-03-14T03:00:40;11.00;99.90
981;DHT22;479;53.514;9.994;2023-03-14T03:03:09;11.10;99.90
981;DHT22;479;53.514;9.994;2023-03-14T03:05:36;11.10;99.90
981;DHT22;479;53.514;9.994;2023-03-14T03:08:03;11.00;99.90
981;DHT22;479;53.514;9.994;2023-03-14T03:10:32;11.10;99.90
981;DHT22;479;53.514;9.994;2023-03-14T03:12:59;11.10;99.90
981;DHT22;479;53.514;9.994;2023-03-14T03:15:28;11.10;99.90
981;DHT22;479;53.514;9.994;2023-03-14T03:17:56;11.10;99.90
981;DHT22;479;53.514;9.994;2023-03-14T03:20:23;11.10;99.90
981;DHT22;479;53.514;9.994;2023-03-14T03:22:50;11.10;99.90
981;DHT22;479;53.514;9.994;2023-03-14T03:25:17;11.20;99.90
981;DHT22;479;53.514;9.994;2023-03-14T03:27:45;11.20;99.90
981;DHT22;479;53.514;9.994;2023-03-14T03:30:16;11.30;99.90
981;DHT22;479;53.514;9.994;2023-03-14T03:32:44;11.30;99.90
981;DHT22;479;53.514;9.994;2023-03-14T03:35:11;11.40;99.90
981;DHT22;479;53.514;9.994;2023-03-14T03:37:39;11.40;99.90
981;DHT22;479;53.514;9.994;2023-03-14T03:40:09;11.40;99.90
981;DHT22;479;53.514;9.994;2023-03-14T03:42:36;11.40;99.90
981;DHT22;479;53.514;9.994;2023-03-14T03:45:07;11.50;99.90
981;DHT22;479;53.514;9.994;2023-03-14T03:47:38;11.40;99.90
981;DHT22;479;53.514;9.994;2023-03-14T03:50:09;11.50;99.90
981;DHT22;479;53.514;9.994;2023-03-14T03:52:36;11.40;99.90
981;DHT22;479;53.514;9.994;2023-03-14T03:55:04;11.40;99.90
981;DHT22;479;53.514;9.994;2023-03-14T03:57:31;11.40;99.90
981;DHT22;479;53.514;9.994;2023-03-14T03:59:58;11.30;99.90
981;DHT22;479;53.514;9.994;2023-03-14T04:02:25;11.30;99.90
981;DHT22;479;53.514;9.994;2023-03-14T04:04:52;11.30;99.90
981;DHT22;479;53.514;9.994;2023-03-14T04:07:20;11.30;99.90
981;DHT22;479;53.514;9.994;2023-03-14T04:09:47;11.30;99.90
981;DHT22;479;53.514;9.994;2023-03-14T04:12:36;11.20;99.90
981;DHT22;479;53.514;9.994;2023-03-14T04:15:12;11.30;99.90
981;DHT22;479;53.514;9.994;2023-03-14T04:17:45;11.30;99.90
981;DHT22;479;53.514;9.994;2023-03-14T04:20:13;11.30;99.90
981;DHT22;479;53.514;9.994;2023-03-14T04:22:42;11.30;99.90
981;DHT22;479;53.514;9.994;2023-03-14T04:25:09;11.20;99.90
981;DHT22;479;53.514;9.994;2023-03-14T04:27:41;11.20;99.90
981;DHT22;479;53.514;9.994;2023-03-14T04:30:16;11.20;99.90
981;DHT22;479;53.514;9.994;2023-03-14T04:32:51;11.20;99.90
981;DHT22;479;53.514;9.994;2023-03-14T04:35:19;11.20;99.90
981;DHT22;479;53.514;9.994;2023-03-14T04:37:47;11.20;99.90
981;DHT22;479;53.514;9.994;2023-03-14T04:40:16;11.20;99.90
981;DHT22;479;53.514;9.994;2023-03-14T04:42:43;11.10;99.90
981;DHT22;479;53.514;9.994;2023-03-14T04:45:10;11.10;99.90
981;DHT22;479;53.514;9.994;2023-03-14T04:47:39;11.20;99.90
981;DHT22;479;53.514;9.994;2023-03-14T04:50:08;11.20;99.90
981;DHT22;479;53.514;9.994;2023-03-14T04:52:35;11.20;99.90
981;DHT22;479;53.514;9.994;2023-03-14T04:55:04;11.20;99.90
981;DHT22;479;53.514;9.994;2023-03-14T04:57:31;11.30;99.90
981;DHT22;479;53.514;9.994;2023-03-14T04:59:58;11.30;99.90
981;DHT22;479;53.514;9.994;2023-03-14T05:02:45;11.40;99.90
981;DHT22;479;53.514;9.994;2023-03-14T05:05:32;11.40;99.90
981;DHT22;479;53.514;9.994;2023-03-14T05:08:28;11.40;99.90
981;DHT22;479;53.514;9.994;2023-03-14T05:11:20;11.40;99.90
981;DHT22;479;53.514;9.994;2023-03-14T05:14:04;11.40;99.90
981;DHT22;479;53.514;9.994;2023-03-14T05:16:51;11.30;99.90
981;DHT22;479;53.514;9.994;2023-03-14T05:19:37;11.30;99.90
981;DHT22;479;53.514;9.994;2023-03-14T05:22:22;11.20;99.90
981;DHT22;479;53.514;9.994;2023-03-14T05:25:08;11.20;99.90
981;DHT22;479;53.514;9.994;2023-03-14T05:27:55;11.20;99.90
981;DHT22;479;53.514;9.994;2023-03-14T05:30:35;11.20;99.90
981;DHT22;479;53.514;9.994;2023-03-14T05:33:22;11.20;99.90
981;DHT22;479;53.514;9.994;2023-03-14T05:36:08;11.10;99.90
981;DHT22;479;53.514;9.994;2023-03-14T05:38:56;11.10;99.90
981;DHT22;479;53.514;9.994;2023-03-14T05:41:43;11.00;99.90
981;DHT22;479;53.514;9.994;2023-03-14T05:44:27;10.90;99.90
981;DHT22;479;53.514;9.994;2023-03-14T05:47:05;10.90;99.90
981;DHT22;479;53.514;9.994;2023-03-14T05:49:43;10.90;99.90
981;DHT22;479;53.514;9.994;2023-03-14T05:52:32;10.80;99.90
981;DHT22;479;53.514;9.994;2023-03-14T05:55:30;10.80;99.90
981;DHT22;479;53.514;9.994;2023-03-14T05:58:12;10.90;99.90
981;DHT22;479;53.514;9.994;2023-03-14T06:00:57;10.80;99.90
981;DHT22;479;53.514;9.994;2023-03-14T06:03:56;10.80;99.90
981;DHT22;479;53.514;9.994;2023-03-14T06:06:23;10.80;99.90
981;DHT22;479;53.514;9.994;2023-03-14T06:08:50;10.80;99.90
981;DHT22;479;53.514;9.994;2023-03-14T06:11:17;10.90;99.90
981;DHT22;479;53.514;9.994;2023-03-14T06:13:45;10.80;99.90
981;DHT22;479;53.514;9.994;2023-03-14T06:16:14;10.80;99.90
981;DHT22;479;53.514;9.994;2023-03-14T06:18:42;10.80;99.90
981;DHT22;479;53.514;9.994;2023-03-14T06:21:11;10.80;99.90
981;DHT22;479;53.514;9.994;2023-03-14T06:23:38;10.90;99.90
981;DHT22;479;53.514;9.994;2023-03-14T06:26:06;10.80;99.90
981;DHT22;479;53.514;9.994;2023-03-14T06:28:33;10.80;99.90
981;DHT22;479;53.514;9.994;2023-03-14T06:31:03;10.80;99.90
981;DHT22;479;53.514;9.994;2023-03-14T06:33:37;10.90;99.90
981;DHT22;479;53.514;9.994;2023-03-14T06:36:06;10.90;99.90
981;DHT22;479;53.514;9.994;2023-03-14T06:38:35;10.90;99.90
981;DHT22;479;53.514;9.994;2023-03-14T06:41:04;10.90;99.90
981;DHT22;479;53.514;9.994;2023-03-14T06:43:37;10.90;99.90
981;DHT22;479;53.514;9.994;2023-03-14T06:46:05;11.00;99.90
981;DHT22;479;53.514;9.994;2023-03-14T06:48:34;11.00;99.90
981;DHT22;479;53.514;9.994;2023-03-14T06:51:03;11.00;99.90
981;DHT22;479;53.514;9.994;2023-03-14T06:53:30;11.00;99.90
981;DHT22;479;53.514;9.994;2023-03-14T06:55:59;11.10;99.90
981;DHT22;479;53.514;9.994;2023-03-14T06:58:28;11.20;99.90
981;DHT22;479;53.514;9.994;2023-03-14T07:00:55;11.10;99.90
981;DHT22;479;53.514;9.994;2023-03-14T07:03:26;11.10;99.90
981;DHT22;479;53.514;9.994;2023-03-14T07:05:55;11.10;99.90
981;DHT22;479;53.514;9.994;2023-03-14T07:08:23;11.10;99.90
981;DHT22;479;53.514;9.994;2023-03-14T07:10:50;11.00;99.90
981;DHT22;479;53.514;9.994;2023-03-14T07:13:18;11.00;99.90
981;DHT22;479;53.514;9.994;2023-03-14T07:15:54;11.10;99.90
981;DHT22;479;53.514;9.994;2023-03-14T07:18:21;11.10;99.90
981;DHT22;479;53.514;9.994;2023-03-14T07:20:48;11.10;99.90
981;DHT22;479;53.514;9.994;2023-03-14T07:23:14;11.10;99.90
981;DHT22;479;53.514;9.994;2023-03-14T07:25:52;11.10;99.90
981;DHT22;479;53.514;9.994;2023-03-14T07:28:20;11.10;99.90
981;DHT22;479;53.514;9.994;2023-03-14T07:30:50;11.10;99.90
981;DHT22;479;53.514;9.994;2023-03-14T07:33:23;11.10;99.90
981;DHT22;479;53.514;9.994;2023-03-14T07:35:50;11.20;99.90
981;DHT22;479;53.514;9.994;2023-03-14T07:38:17;11.30;99.90
981;DHT22;479;53.514;9.994;2023-03-14T07:41:06;11.40;99.90
981;DHT22;479;53.514;9.994;2023-03-14T07:43:36;11.90;99.90
981;DHT22;479;53.514;9.994;2023-03-14T07:46:03;12.40;99.90
981;DHT22;479;53.514;9.994;2023-03-14T07:48:30;12.40;99.90
981;DHT22;479;53.514;9.994;2023-03-14T07:50:57;12.40;99.90
981;DHT22;479;53.514;9.994;2023-03-14T07:53:25;12.30;99.90
981;DHT22;479;53.514;9.994;2023-03-14T07:55:53;12.20;99.90
981;DHT22;479;53.514;9.994;2023-03-14T07:58:22;12.00;99.90
981;DHT22;479;53.514;9.994;2023-03-14T08:00:49;11.80;99.90
981;DHT22;479;53.514;9.994;2023-03-14T08:03:16;11.70;99.90
981;DHT22;479;53.514;9.994;2023-03-14T08:05:43;11.50;99.90
981;DHT22;479;53.514;9.994;2023-03-14T08:08:10;11.40;99.90
981;DHT22;479;53.514;9.994;2023-03-14T08:10:37;11.40;99.90
981;DHT22;479;53.514;9.994;2023-03-14T08:13:04;11.50;99.90
981;DHT22;479;53.514;9.994;2023-03-14T08:15:32;11.80;99.90
981;DHT22;479;53.514;9.994;2023-03-14T08:17:59;12.10;99.90
981;DHT22;479;53.514;9.994;2023-03-14T08:20:27;12.20;99.90
981;DHT22;479;53.514;9.994;2023-03-14T08:22:55;12.20;99.90
981;DHT22;479;53.514;9.994;2023-03-14T08:25:23;12.10;99.90
981;DHT22;479;53.514;9.994;2023-03-14T08:27:50;12.10;99.90
981;DHT22;479;53.514;9.994;2023-03-14T08:30:18;12.30;99.90
981;DHT22;479;53.514;9.994;2023-03-14T08:32:46;12.10;99.90
981;DHT22;479;53.514;9.994;2023-03-14T08:35:14;12.10;99.90
981;DHT22;479;53.514;9.994;2023-03-14T08:37:41;12.20;99.90
981;DHT22;479;53.514;9.994;2023-03-14T08:40:09;12.20;99.90
981;DHT22;479;53.514;9.994;2023-03-14T08:42:37;12.20;99.90
981;DHT22;479;53.514;9.994;2023-03-14T08:45:06;12.20;99.90
981;DHT22;479;53.514;9.994;2023-03-14T08:47:34;12.30;99.90
981;DHT22;479;53.514;9.994;2023-03-14T08:50:02;12.20;99.90
981;DHT22;479;53.514;9.994;2023-03-14T08:52:30;12.20;99.90
981;DHT22;479;53.514;9.994;2023-03-14T08:54:57;12.20;99.90
981;DHT22;479;53.514;9.994;2023-03-14T08:57:24;12.20;99.90
981;DHT22;479;53.514;9.994;2023-03-14T08:59:53;12.10;99.90
981;DHT22;479;53.514;9.994;2023-03-14T09:02:21;12.10;99.90
981;DHT22;479;53.514;9.994;2023-03-14T09:04:47;12.10;99.90
981;DHT22;479;53.514;9.994;2023-03-14T09:07:16;12.00;99.90
981;DHT22;479;53.514;9.994;2023-03-14T09:09:43;11.90;99.90
981;DHT22;479;53.514;9.994;2023-03-14T09:12:10;12.00;99.90
981;DHT22;479;53.514;9.994;2023-03-14T09:14:37;12.10;99.90
981;DHT22;479;53.514;9.994;2023-03-14T09:17:04;12.20;99.90
981;DHT22;479;53.514;9.994;2023-03-14T09:19:31;12.20;99.90
981;DHT22;479;53.514;9.994;2023-03-14T09:21:58;12.10;99.90
981;DHT22;479;53.514;9.994;2023-03-14T09:24:26;12.00;99.90
981;DHT22;479;53.514;9.994;2023-03-14T09:26:54;11.90;99.90
981;DHT22;479;53.514;9.994;2023-03-14T09:29:21;12.00;99.90
981;DHT22;479;53.514;9.994;2023-03-14T09:31:48;12.00;99.90
981;DHT22;479;53.514;9.994;2023-03-14T09:34:15;11.80;99.90
981;DHT22;479;53.514;9.994;2023-03-14T09:36:42;11.70;99.90
981;DHT22;479;53.514;9.994;2023-03-14T09:39:09;11.80;99.90
981;DHT22;479;53.514;9.994;2023-03-14T09:41:40;11.70;99.90
981;DHT22;479;53.514;9.994;2023-03-14T09:44:11;11.60;99.90
981;DHT22;479;53.514;9.994;2023-03-14T09:46:41;11.60;99.90
981;DHT22;479;53.514;9.994;2023-03-14T09:49:12;11.50;99.90
981;DHT22;479;53.514;9.994;2023-03-14T09:51:44;11.20;99.90
981;DHT22;479;53.514;9.994;2023-03-14T09:54:30;11.10;99.90
981;DHT22;479;53.514;9.994;2023-03-14T09:56:59;11.00;99.90
981;DHT22;479;53.514;9.994;2023-03-14T09:59:27;10.80;99.90
981;DHT22;479;53.514;9.994;2023-03-14T10:01:56;10.60;99.90
981;DHT22;479;53.514;9.994;2023-03-14T10:04:24;10.30;99.90
981;DHT22;479;53.514;9.994;2023-03-14T10:06:52;9.60;99.90
981;DHT22;479;53.514;9.994;2023-03-14T10:09:21;9.10;99.90
981;DHT22;479;53.514;9.994;2023-03-14T10:11:55;8.70;99.90
981;DHT22;479;53.514;9.994;2023-03-14T10:14:33;8.60;99.90
981;DHT22;479;53.514;9.994;2023-03-14T10:17:08;8.50;99.90
981;DHT22;479;53.514;9.994;2023-03-14T10:19:35;8.40;99.90
981;DHT22;479;53.514;9.994;2023-03-14T10:22:04;8.30;99.90
981;DHT22;479;53.514;9.994;2023-03-14T10:24:32;8.20;99.90
981;DHT22;479;53.514;9.994;2023-03-14T10:27:01;8.10;99.90
981;DHT22;479;53.514;9.994;2023-03-14T10:29:31;8.00;99.90
981;DHT22;479;53.514;9.994;2023-03-14T10:32:00;8.10;99.90
981;DHT22;479;53.514;9.994;2023-03-14T10:34:29;8.20;99.90
981;DHT22;479;53.514;9.994;2023-03-14T10:36:58;7.90;99.90
981;DHT22;479;53.514;9.994;2023-03-14T10:39:29;7.70;99.90
981;DHT22;479;53.514;9.994;2023-03-14T10:42:04;7.70;99.90
981;DHT22;479;53.514;9.994;2023-03-14T10:44:34;7.60;99.90
981;DHT22;479;53.514;9.994;2023-03-14T10:47:03;7.80;99.90
981;DHT22;479;53.514;9.994;2023-03-14T10:49:32;7.60;99.90
981;DHT22;479;53.514;9.994;2023-03-14T10:52:15;7.40;99.90
981;DHT22;479;53.514;9.994;2023-03-14T10:54:47;7.10;99.90
981;DHT22;479;53.514;9.994;2023-03-14T10:57:15;6.80;99.90
981;DHT22;479;53.514;9.994;2023-03-14T10:59:43;6.80;99.90
981;DHT22;479;53.514;9.994;2023-03-14T11:02:26;6.70;99.90
981;DHT22;479;53.514;9.994;2023-03-14T11:05:03;6.80;99.90
981;DHT22;479;53.514;9.994;2023-03-14T11:07:35;6.90;99.90
981;DHT22;479;53.514;9.994;2023-03-14T11:10:11;6.70;99.90
981;DHT22;479;53.514;9.994;2023-03-14T11:12:50;6.70;99.90
981;DHT22;479;53.514;9.994;2023-03-14T11:15:27;6.50;99.90
981;DHT22;479;53.514;9.994;2023-03-14T11:18:14;6.60;99.90
981;DHT22;479;53.514;9.994;2023-03-14T11:20:52;6.50;99.90
981;DHT22;479;53.514;9.994;2023-03-14T11:23:21;6.50;99.90
981;DHT22;479;53.514;9.994;2023-03-14T11:25:56;6.50;99.90
981;DHT22;479;53.514;9.994;2023-03-14T11:28:31;6.70;99.90
981;DHT22;479;53.514;9.994;2023-03-14T11:31:09;6.50;99.90
981;DHT22;479;53.514;9.994;2023-03-14T11:33:46;6.20;99.90
981;DHT22;479;53.514;9.994;2023-03-14T11:36:19;6.30;99.90
981;DHT22;479;53.514;9.994;2023-03-14T11:38:49;6.20;99.90
981;DHT22;479;53.514;9.994;2023-03-14T11:41:19;6.10;99.90
981;DHT22;479;53.514;9.994;2023-03-14T11:43:48;6.20;99.90
981;DHT22;479;53.514;9.994;2023-03-14T11:46:21;6.20;99.90
981;DHT22;479;53.514;9.994;2023-03-14T11:48:57;6.20;99.90
981;DHT22;479;53.514;9.994;2023-03-14T11:51:29;6.20;99.90
981;DHT22;479;53.514;9.994;2023-03-14T11:54:04;6.20;99.90
981;DHT22;479;53.514;9.994;2023-03-14T11:56:41;6.30;99.90
981;DHT22;479;53.514;9.994;2023-03-14T11:59:14;6.50;99.90
981;DHT22;479;53.514;9.994;2023-03-14T12:01:53;6.70;99.90
981;DHT22;479;53.514;9.994;2023-03-14T12:04:35;6.70;99.90
981;DHT22;479;53.514;9.994;2023-03-14T12:07:12;6.70;99.90
981;DHT22;479;53.514;9.994;2023-03-14T12:09:39;6.60;99.90
981;DHT22;479;53.514;9.994;2023-03-14T12:12:12;6.60;99.90
981;DHT22;479;53.514;9.994;2023-03-14T12:14:45;6.80;99.90
981;DHT22;479;53.514;9.994;2023-03-14T12:17:21;6.60;99.90
981;DHT22;479;53.514;9.994;2023-03-14T12:20:00;6.80;99.90
981;DHT22;479;53.514;9.994;2023-03-14T12:22:30;6.90;99.90
981;DHT22;479;53.514;9.994;2023-03-14T12:25:04;7.00;99.90
981;DHT22;479;53.514;9.994;2023-03-14T12:30:33;7.10;99.90
981;DHT22;479;53.514;9.994;2023-03-14T12:33:30;6.90;99.90
981;DHT22;479;53.514;9.994;2023-03-14T12:35:59;6.70;99.90
981;DHT22;479;53.514;9.994;2023-03-14T12:38:37;6.80;99.90
981;DHT22;479;53.514;9.994;2023-03-14T12:41:14;7.00;99.90
981;DHT22;479;53.514;9.994;2023-03-14T12:43:41;7.10;99.90
981;DHT22;479;53.514;9.994;2023-03-14T12:46:24;7.20;99.90
981;DHT22;479;53.514;9.994;2023-03-14T12:49:03;7.20;99.90
981;DHT22;479;53.514;9.994;2023-03-14T12:51:35;7.10;99.90
981;DHT22;479;53.514;9.994;2023-03-14T12:59:56;7.00;99.90
981;DHT22;479;53.514;9.994;2023-03-14T13:02:26;7.10;99.90
981;DHT22;479;53.514;9.994;2023-03-14T13:05:02;6.90;99.90
981;DHT22;479;53.514;9.994;2023-03-14T13:10:28;6.60;99.90
981;DHT22;479;53.514;9.994;2023-03-14T13:13:01;6.30;99.90
981;DHT22;479;53.514;9.994;2023-03-14T13:15:31;6.50;99.90
981;DHT22;479;53.514;9.994;2023-03-14T13:18:02;6.30;99.90
981;DHT22;479;53.514;9.994;2023-03-14T13:20:32;6.40;99.90
981;DHT22;479;53.514;9.994;2023-03-14T13:23:01;6.60;99.90
981;DHT22;479;53.514;9.994;2023-03-14T13:25:32;6.70;99.90
981;DHT22;479;53.514;9.994;2023-03-14T13:28:01;6.80;99.90
981;DHT22;479;53.514;9.994;2023-03-14T13:30:38;7.10;99.90
981;DHT22;479;53.514;9.994;2023-03-14T13:33:05;7.00;99.90
981;DHT22;479;53.514;9.994;2023-03-14T13:35:40;7.00;99.90
981;DHT22;479;53.514;9.994;2023-03-14T13:38:19;7.10;99.90
981;DHT22;479;53.514;9.994;2023-03-14T13:40:47;7.00;99.90
981;DHT22;479;53.514;9.994;2023-03-14T13:43:18;7.00;99.90
981;DHT22;479;53.514;9.994;2023-03-14T13:45:49;7.00;99.90
981;DHT22;479;53.514;9.994;2023-03-14T13:48:17;7.10;97.50
981;DHT22;479;53.514;9.994;2023-03-14T13:50:49;7.10;93.90
981;DHT22;479;53.514;9.994;2023-03-14T13:53:17;7.00;93.50
981;DHT22;479;53.514;9.994;2023-03-14T13:55:44;7.10;93.80
981;DHT22;479;53.514;9.994;2023-03-14T13:58:21;7.10;94.40
981;DHT22;479;53.514;9.994;2023-03-14T14:00:57;7.20;94.40
981;DHT22;479;53.514;9.994;2023-03-14T14:03:25;7.10;93.50
981;DHT22;479;53.514;9.994;2023-03-14T14:05:55;7.30;95.00
981;DHT22;479;53.514;9.994;2023-03-14T14:08:22;7.40;94.30
981;DHT22;479;53.514;9.994;2023-03-14T14:10:50;7.40;93.80
981;DHT22;479;53.514;9.994;2023-03-14T14:13:21;7.40;95.40
981;DHT22;479;53.514;9.994;2023-03-14T14:15:52;7.30;96.30
981;DHT22;479;53.514;9.994;2023-03-14T14:18:21;7.20;99.90
981;DHT22;479;53.514;9.994;2023-03-14T14:20:50;7.10;99.90
981;DHT22;479;53.514;9.994;2023-03-14T14:23:20;7.20;99.90
981;DHT22;479;53.514;9.994;2023-03-14T14:25:51;7.20;95.20
981;DHT22;479;53.514;9.994;2023-03-14T14:28:24;7.30;93.50
981;DHT22;479;53.514;9.994;2023-03-14T14:31:04;7.40;92.00
981;DHT22;479;53.514;9.994;2023-03-14T14:33:38;7.40;88.60
981;DHT22;479;53.514;9.994;2023-03-14T14:36:15;7.30;85.30
981;DHT22;479;53.514;9.994;2023-03-14T14:38:49;7.30;83.30
981;DHT22;479;53.514;9.994;2023-03-14T14:41:16;7.20;82.50
981;DHT22;479;53.514;9.994;2023-03-14T14:43:43;7.40;84.20
981;DHT22;479;53.514;9.994;2023-03-14T14:46:13;7.30;82.50
981;DHT22;479;53.514;9.994;2023-03-14T14:48:42;7.20;79.40
981;DHT22;479;53.514;9.994;2023-03-14T14:51:09;7.10;78.20
981;DHT22;479;53.514;9.994;2023-03-14T14:53:37;7.20;76.50
981;DHT22;479;53.514;9.994;2023-03-14T14:56:13;7.20;76.00
981;DHT22;479;53.514;9.994;2023-03-14T14:58:44;7.20;77.10
981;DHT22;479;53.514;9.994;2023-03-14T15:01:14;7.30;78.00
981;DHT22;479;53.514;9.994;2023-03-14T15:03:44;7.30;74.10
981;DHT22;479;53.514;9.994;2023-03-14T15:06:12;7.20;74.90
981;DHT22;479;53.514;9.994;2023-03-14T15:08:40;7.10;75.90
981;DHT22;479;53.514;9.994;2023-03-14T15:11:16;7.00;76.00
981;DHT22;479;53.514;9.994;2023-03-14T15:13:44;7.00;77.40
981;DHT22;479;53.514;9.994;2023-03-14T15:16:12;6.90;77.40
981;DHT22;479;53.514;9.994;2023-03-14T15:18:40;6.90;78.50
981;DHT22;479;53.514;9.994;2023-03-14T15:21:09;7.00;81.20
981;DHT22;479;53.514;9.994;2023-03-14T15:23:36;6.90;80.80
981;DHT22;479;53.514;9.994;2023-03-14T15:26:10;6.80;82.80
981;DHT22;479;53.514;9.994;2023-03-14T15:28:38;6.80;84.80
981;DHT22;479;53.514;9.994;2023-03-14T15:31:05;6.90;88.20
981;DHT22;479;53.514;9.994;2023-03-14T15:33:32;7.10;89.40
981;DHT22;479;53.514;9.994;2023-03-14T15:35:58;7.10;90.00
981;DHT22;479;53.514;9.994;2023-03-14T15:38:26;7.20;88.30
981;DHT22;479;53.514;9.994;2023-03-14T15:40:53;7.10;87.10
981;DHT22;479;53.514;9.994;2023-03-14T15:43:21;7.10;86.10
981;DHT22;479;53.514;9.994;2023-03-14T15:45:48;7.10;84.60
981;DHT22;479;53.514;9.994;2023-03-14T15:48:17;7.00;81.80
981;DHT22;479;53.514;9.994;2023-03-14T15:50:44;6.80;82.50
981;DHT22;479;53.514;9.994;2023-03-14T15:53:11;6.90;81.70
981;DHT22;479;53.514;9.994;2023-03-14T15:55:38;6.80;81.30
981;DHT22;479;53.514;9.994;2023-03-14T15:58:05;6.70;80.90
981;DHT22;479;53.514;9.994;2023-03-14T16:00:33;6.80;80.40
981;DHT22;479;53.514;9.994;2023-03-14T16:03:03;6.60;79.10
981;DHT22;479;53.514;9.994;2023-03-14T16:05:30;6.60;79.20
981;DHT22;479;53.514;9.994;2023-03-14T16:07:57;6.50;79.70
981;DHT22;479;53.514;9.994;2023-03-14T16:10:24;6.50;80.20
981;DHT22;479;53.514;9.994;2023-03-14T16:12:51;6.50;80.10
981;DHT22;479;53.514;9.994;2023-03-14T16:15:17;6.50;81.10
981;DHT22;479;53.514;9.994;2023-03-14T16:17:46;6.40;80.10
981;DHT22;479;53.514;9.994;2023-03-14T16:20:14;6.40;79.60
981;DHT22;479;53.514;9.994;2023-03-14T16:22:45;6.40;77.10
981;DHT22;479;53.514;9.994;2023-03-14T16:25:12;6.40;76.40
981;DHT22;479;53.514;9.994;2023-03-14T16:27:39;6.30;76.80
981;DHT22;479;53.514;9.994;2023-03-14T16:30:08;6.20;76.50
981;DHT22;479;53.514;9.994;2023-03-14T16:32:35;6.20;77.80
981;DHT22;479;53.514;9.994;2023-03-14T16:35:04;6.20;78.80
981;DHT22;479;53.514;9.994;2023-03-14T16:37:32;6.10;79.40
981;DHT22;479;53.514;9.994;2023-03-14T16:39:59;6.10;81.50
981;DHT22;479;53.514;9.994;2023-03-14T16:42:25;6.10;82.30
981;DHT22;479;53.514;9.994;2023-03-14T16:44:52;6.10;83.00
981;DHT22;479;53.514;9.994;2023-03-14T16:47:19;6.00;81.00
981;DHT22;479;53.514;9.994;2023-03-14T16:49:46;5.90;80.70
981;DHT22;479;53.514;9.994;2023-03-14T16:52:14;5.80;82.60
981;DHT22;479;53.514;9.994;2023-03-14T16:54:41;5.80;84.90
981;DHT22;479;53.514;9.994;2023-03-14T16:57:08;5.70;87.80
981;DHT22;479;53.514;9.994;2023-03-14T16:59:35;5.70;92.20
981;DHT22;479;53.514;9.994;2023-03-14T17:02:02;5.70;94.10
981;DHT22;479;53.514;9.994;2023-03-14T17:04:29;5.70;95.80
981;DHT22;479;53.514;9.994;2023-03-14T17:06:56;5.70;96.80
981;DHT22;479;53.514;9.994;2023-03-14T17:09:24;5.70;96.80
981;DHT22;479;53.514;9.994;2023-03-14T17:11:53;5.60;96.80
981;DHT22;479;53.514;9.994;2023-03-14T17:14:20;5.60;95.30
981;DHT22;479;53.514;9.994;2023-03-14T17:16:48;5.60;95.90